Fremont, MI

4:55 PM EDT on May 29, 2015 (GMT -0400)
Fremont | | Change Station
CLOSE
Current Station
Personal Weather Station
Location: Fremont, MI
Elevation: 817 ft
Nearby Weather Stations

Elev 817 ft 43.47 °N, 85.95 °W | Updated 13 minutes ago

Clear
Clear
82.2 °F
Feels Like 84 °F
N
6.3
Wind Variable Wind from SSW

Today
High -- | Low -- °F
--% Chance of Precip.
Yesterday
High -- | Low -- °F
Precip. -- in
6:07 AM 9:15 PM
Waxing Gibbous, 86% visible
Pressure 29.96 in
Visibility 7.0 miles
Clouds Clear
Heat Index 84 °F
Dew Point 64 °F
Humidity 54%
Rainfall 0.00 in
Snow Depth Not available.
UV 7 out of 12
Pollen 8.90 out of 12
Air Quality Not available.
Flu Activity Sporadic
METAR KFFX 292030Z AUTO 21012G19KT 7SM CLR 27/15 A2996 RMK AO2 T02650147

More Conditions Fewer Conditions

Pressure 29.96 in
Visibility 7.0 miles
Clouds Clear
Heat Index 84 °F
Dew Point 64 °F
Humidity 54%
Rainfall 0.00 in
Snow Depth Not available.
UV 7 out of 12
Pollen 8.90 out of 12
Air Quality Not available.
Flu Activity Sporadic
METAR KFFX 292030Z AUTO 21012G19KT 7SM CLR 27/15 A2996 RMK AO2 T02650147

More Conditions Fewer Conditions

10-Day Weather Forecast

Almanac

Astronomy

May. 29, 2015 Rise Set
Actual Time
Civil Twilight
Nautical Twilight
Astronomical Twilight
Moon
Length of Visible Light
Length of Day
Tomorrow will be .
, % of the Moon is Illuminated

Today's Extremes

State Highs State Lows

Community

WunderPhotos

Upload Photos

1,825,351 photos uploaded!

WunderBlogs® & News

Nearby

Air Quality

  Air Quality AQ Index Pollutant
Not available.

Snow Depth

Station Depth Elevation

Earthquake Activity

City Distance Mag. Time & Date
Minimum magnitude displayed is 2.5.

Coastal Water Temperatures

Place Temperature

Stations

Nearby Weather Stations

Station Location Temp. Windchill Dew Point Humidity Wind Precip. Elev Updated Type